createdAt,value
2022-12-08T00:00:52.698Z,0.30
2022-12-08T00:01:52.846Z,0.40
2022-12-08T00:02:52.864Z,0.31
2022-12-08T00:03:52.724Z,0.36
2022-12-08T00:04:52.732Z,0.44
2022-12-08T00:05:52.740Z,0.34
2022-12-08T00:06:52.747Z,0.40
2022-12-08T00:07:52.808Z,0.40
2022-12-08T00:08:52.762Z,0.39
2022-12-08T00:09:52.768Z,0.39
2022-12-08T00:10:52.775Z,0.39
2022-12-08T00:11:52.784Z,0.44
2022-12-08T00:12:52.792Z,0.49
2022-12-08T00:13:52.796Z,0.39
2022-12-08T00:14:52.804Z,0.37
2022-12-08T00:15:52.816Z,0.36
2022-12-08T00:16:52.902Z,0.39
2022-12-08T00:17:52.824Z,0.40
2022-12-08T00:18:52.831Z,0.44
2022-12-08T00:19:52.837Z,0.49
2022-12-08T00:20:52.847Z,0.47
2022-12-08T00:21:52.856Z,0.45
2022-12-08T00:22:52.867Z,0.51
2022-12-08T00:23:52.868Z,0.47
2022-12-08T00:24:52.876Z,0.48
2022-12-08T00:25:52.882Z,0.55
2022-12-08T00:26:52.893Z,0.52
2022-12-08T00:27:52.896Z,0.58
2022-12-08T00:28:52.905Z,0.58
2022-12-08T00:29:52.911Z,0.56
2022-12-08T00:30:52.919Z,0.59
2022-12-08T00:31:53.012Z,0.63
2022-12-08T00:32:52.934Z,0.59
2022-12-08T00:33:52.942Z,0.64
2022-12-08T00:34:52.950Z,0.64
2022-12-08T00:35:52.955Z,0.58
2022-12-08T00:36:52.965Z,0.64
2022-12-08T00:37:57.535Z,0.68
2022-12-08T00:38:52.978Z,0.76
2022-12-08T00:39:52.997Z,0.78
2022-12-08T00:40:52.994Z,0.78
2022-12-08T00:41:52.999Z,0.68
2022-12-08T00:42:53.007Z,0.71
2022-12-08T00:43:53.018Z,0.68
2022-12-08T00:44:53.033Z,0.74
2022-12-08T00:45:53.108Z,0.77
2022-12-08T00:46:53.047Z,0.76
2022-12-08T00:47:53.054Z,0.76
2022-12-08T00:48:53.049Z,0.76
2022-12-08T00:49:53.059Z,0.76
2022-12-08T00:50:53.068Z,0.76
2022-12-08T00:51:53.118Z,0.81
2022-12-08T00:52:53.086Z,0.76
2022-12-08T00:53:53.118Z,0.78
2022-12-08T00:54:53.109Z,0.78
2022-12-08T00:55:53.108Z,0.71
2022-12-08T00:56:53.110Z,0.74
2022-12-08T00:57:53.119Z,0.74
2022-12-08T00:58:53.126Z,0.78
2022-12-08T00:59:53.131Z,0.74
2022-12-08T01:00:53.195Z,0.78
2022-12-08T01:01:53.146Z,0.82
2022-12-08T01:02:53.179Z,0.85
2022-12-08T01:03:53.162Z,0.85
2022-12-08T01:04:53.168Z,0.89
2022-12-08T01:05:53.178Z,0.85
2022-12-08T01:06:53.188Z,0.91
2022-12-08T01:07:53.235Z,0.85
2022-12-08T01:08:53.197Z,0.91
2022-12-08T01:09:53.207Z,0.91
2022-12-08T01:10:53.214Z,0.92
2022-12-08T01:11:53.221Z,0.89
2022-12-08T01:12:53.228Z,0.85
2022-12-08T01:13:53.237Z,0.84
2022-12-08T01:14:55.019Z,0.86
2022-12-08T01:15:53.252Z,0.81
2022-12-08T01:16:53.351Z,0.82
2022-12-08T01:17:53.266Z,0.81
2022-12-08T01:18:53.275Z,0.88
2022-12-08T01:19:53.284Z,0.81
2022-12-08T01:20:53.287Z,0.88
2022-12-08T01:21:53.296Z,0.88
2022-12-08T01:22:53.305Z,0.82
2022-12-08T01:23:53.311Z,0.82
2022-12-08T01:24:53.318Z,0.82
2022-12-08T01:25:53.326Z,0.84
2022-12-08T01:26:53.333Z,0.82
2022-12-08T01:27:53.341Z,0.89
2022-12-08T01:28:53.363Z,0.84
2022-12-08T01:29:53.356Z,0.86
2022-12-08T01:30:53.451Z,0.77
2022-12-08T01:31:53.369Z,0.85
2022-12-08T01:32:53.379Z,0.94
2022-12-08T01:33:53.394Z,0.82
2022-12-08T01:34:53.399Z,0.86
2022-12-08T01:35:53.398Z,0.91
2022-12-08T01:36:53.408Z,0.88
2022-12-08T01:37:53.416Z,0.82
2022-12-08T01:38:53.475Z,0.89
2022-12-08T01:39:53.434Z,0.84
2022-12-08T01:40:53.438Z,0.82
2022-12-08T01:41:53.447Z,0.84
2022-12-08T01:42:53.453Z,0.91
2022-12-08T01:43:53.458Z,0.84
2022-12-08T01:44:53.469Z,0.81
2022-12-08T01:45:53.542Z,0.78
2022-12-08T01:46:53.487Z,0.91
2022-12-08T01:47:53.556Z,0.84
2022-12-08T01:48:53.497Z,0.78
2022-12-08T01:49:53.504Z,0.78
2022-12-08T01:50:53.512Z,0.88
2022-12-08T01:51:53.518Z,0.82
2022-12-08T01:52:53.529Z,0.81
2022-12-08T01:53:53.537Z,0.86
2022-12-08T01:54:53.541Z,0.81
2022-12-08T01:55:53.548Z,0.85
2022-12-08T01:56:53.557Z,0.71
2022-12-08T01:57:53.564Z,0.84
2022-12-08T01:58:53.570Z,0.84
2022-12-08T01:59:53.580Z,0.88
2022-12-08T02:00:53.593Z,0.86
2022-12-08T02:01:53.694Z,0.84
2022-12-08T02:02:53.691Z,0.86
2022-12-08T02:03:53.608Z,0.82
2022-12-08T02:04:53.616Z,0.77
2022-12-08T02:05:53.627Z,0.82
2022-12-08T02:06:53.631Z,0.77
2022-12-08T02:07:53.693Z,0.76
2022-12-08T02:08:53.644Z,0.77
2022-12-08T02:09:53.651Z,0.78
2022-12-08T02:10:53.658Z,0.74
2022-12-08T02:11:53.666Z,0.78
2022-12-08T02:12:53.677Z,0.78
2022-12-08T02:13:53.681Z,0.77
2022-12-08T02:14:53.688Z,0.71
2022-12-08T02:15:53.735Z,0.81
2022-12-08T02:16:53.703Z,0.78
2022-12-08T02:17:53.711Z,0.76
2022-12-08T02:19:14.749Z,0.81
2022-12-08T02:19:53.723Z,0.76
2022-12-08T02:20:53.733Z,0.78
2022-12-08T02:21:53.740Z,0.70
2022-12-08T02:22:53.749Z,0.76
2022-12-08T02:23:53.758Z,0.71
2022-12-08T02:24:53.761Z,0.78
2022-12-08T02:25:53.767Z,0.71
2022-12-08T02:26:53.776Z,0.81
2022-12-08T02:27:53.785Z,0.81
2022-12-08T02:28:53.792Z,0.78
2022-12-08T02:29:53.796Z,0.77
2022-12-08T02:30:53.857Z,0.84
2022-12-08T02:31:53.814Z,0.85
2022-12-08T02:32:53.819Z,0.74
2022-12-08T02:33:53.827Z,0.82
2022-12-08T02:34:53.835Z,0.78
2022-12-08T02:35:53.846Z,0.73
2022-12-08T02:36:53.850Z,0.71
2022-12-08T02:37:53.854Z,0.78
2022-12-08T02:38:53.865Z,0.81
2022-12-08T02:39:53.870Z,0.78
2022-12-08T02:40:53.879Z,0.77
2022-12-08T02:41:53.889Z,0.91
2022-12-08T02:42:53.894Z,0.86
2022-12-08T02:43:53.897Z,0.89
2022-12-08T02:44:53.908Z,0.89
2022-12-08T02:45:53.974Z,0.82
2022-12-08T02:46:53.922Z,0.86
2022-12-08T02:47:53.931Z,0.86
2022-12-08T02:48:53.937Z,0.91
2022-12-08T02:49:53.944Z,0.82
2022-12-08T02:50:53.952Z,0.84
2022-12-08T02:51:53.959Z,0.86
2022-12-08T02:52:53.970Z,0.86
2022-12-08T02:53:53.973Z,0.86
2022-12-08T02:54:53.981Z,0.78
2022-12-08T02:55:53.988Z,0.81
2022-12-08T02:56:53.998Z,0.86
2022-12-08T02:57:54.002Z,0.85
2022-12-08T02:58:54.010Z,0.86
2022-12-08T02:59:54.017Z,0.84
2022-12-08T03:00:54.025Z,0.84
2022-12-08T03:01:54.117Z,0.86
2022-12-08T03:02:54.094Z,0.84
2022-12-08T03:03:54.048Z,0.99
2022-12-08T03:04:54.057Z,0.89
2022-12-08T03:05:54.066Z,0.88
2022-12-08T03:06:54.071Z,0.96
2022-12-08T03:07:54.141Z,0.96
2022-12-08T03:08:54.083Z,0.89
2022-12-08T03:09:54.092Z,0.94
2022-12-08T03:10:54.099Z,0.96
2022-12-08T03:11:54.109Z,0.91
2022-12-08T03:12:54.114Z,0.95
2022-12-08T03:13:54.121Z,1.00
2022-12-08T03:14:54.132Z,0.95
2022-12-08T03:15:54.208Z,0.96
2022-12-08T03:16:54.142Z,1.02
2022-12-08T03:17:54.151Z,0.96
2022-12-08T03:18:54.157Z,0.96
2022-12-08T03:19:54.168Z,0.88
2022-12-08T03:20:54.174Z,0.88
2022-12-08T03:21:54.180Z,0.78
2022-12-08T03:22:54.188Z,0.81
2022-12-08T03:23:54.195Z,0.86
2022-12-08T03:24:54.201Z,0.88
2022-12-08T03:25:54.210Z,0.84
2022-12-08T03:26:54.219Z,0.84
2022-12-08T03:27:54.226Z,0.86
2022-12-08T03:28:54.233Z,0.78
2022-12-08T03:29:54.237Z,0.76
2022-12-08T03:30:54.395Z,0.82
2022-12-08T03:31:54.254Z,0.76
2022-12-08T03:32:54.267Z,0.71
2022-12-08T03:33:54.268Z,0.74
2022-12-08T03:34:54.275Z,0.76
2022-12-08T03:35:54.290Z,0.76
2022-12-08T03:36:54.290Z,0.81
2022-12-08T03:37:54.299Z,0.70
2022-12-08T03:38:54.304Z,0.68
2022-12-08T03:39:54.311Z,0.73
2022-12-08T03:40:54.319Z,0.76
2022-12-08T03:41:54.326Z,0.76
2022-12-08T03:42:54.334Z,0.74
2022-12-08T03:43:54.338Z,0.74
2022-12-08T03:44:54.347Z,0.74
2022-12-08T03:45:54.357Z,0.76
2022-12-08T03:46:54.362Z,0.70
2022-12-08T03:47:54.366Z,0.70
2022-12-08T03:48:54.381Z,0.73
2022-12-08T03:49:54.388Z,0.76
2022-12-08T03:50:54.391Z,0.76
2022-12-08T03:51:54.396Z,0.74
2022-12-08T03:52:54.404Z,0.81
2022-12-08T03:53:54.413Z,0.74
2022-12-08T03:54:54.418Z,0.77
2022-12-08T03:55:54.430Z,0.68
2022-12-08T03:56:54.432Z,0.70
2022-12-08T03:57:54.443Z,0.70
2022-12-08T03:58:54.450Z,0.76
2022-12-08T03:59:54.454Z,0.71
2022-12-08T04:00:54.462Z,0.74
2022-12-08T04:01:54.498Z,0.70
2022-12-08T04:02:54.522Z,0.73
2022-12-08T04:03:54.482Z,0.71
2022-12-08T04:04:54.493Z,0.77
2022-12-08T04:05:54.497Z,0.81
2022-12-08T04:06:54.505Z,0.76
2022-12-08T04:07:54.558Z,0.70
2022-12-08T04:08:54.518Z,0.74
2022-12-08T04:09:54.527Z,0.73
2022-12-08T04:10:54.532Z,0.81
2022-12-08T04:11:54.538Z,0.71
2022-12-08T04:12:54.555Z,0.71
2022-12-08T04:13:54.555Z,0.73
2022-12-08T04:14:54.562Z,0.63
2022-12-08T04:15:54.635Z,0.63
2022-12-08T04:16:54.576Z,0.70
2022-12-08T04:17:54.585Z,0.63
2022-12-08T04:18:54.588Z,0.73
2022-12-08T04:19:54.597Z,0.74
2022-12-08T04:20:54.601Z,0.73
2022-12-08T04:21:54.610Z,0.73
2022-12-08T04:22:54.617Z,0.68
2022-12-08T04:24:00.597Z,0.78
2022-12-08T04:24:54.630Z,0.71
2022-12-08T04:25:54.637Z,0.77
2022-12-08T04:26:54.643Z,0.74
2022-12-08T04:27:54.655Z,0.73
2022-12-08T04:28:54.658Z,0.74
2022-12-08T04:29:54.664Z,0.76
2022-12-08T04:30:54.749Z,0.74
2022-12-08T04:31:54.731Z,0.71
2022-12-08T04:32:54.685Z,0.73
2022-12-08T04:33:54.694Z,0.77
2022-12-08T04:34:54.702Z,0.76
2022-12-08T04:35:54.707Z,0.76
2022-12-08T04:36:54.714Z,0.81
2022-12-08T04:37:54.723Z,0.81
2022-12-08T04:38:54.733Z,0.73
2022-12-08T04:39:54.739Z,0.74
2022-12-08T04:40:54.742Z,0.76
2022-12-08T04:41:54.749Z,0.74
2022-12-08T04:42:54.759Z,0.76
2022-12-08T04:43:54.763Z,0.74
2022-12-08T04:44:54.770Z,0.77
2022-12-08T04:45:54.777Z,0.81
2022-12-08T04:46:54.864Z,0.71
2022-12-08T04:47:54.790Z,0.77
2022-12-08T04:48:54.815Z,0.77
2022-12-08T04:49:54.806Z,0.73
2022-12-08T04:50:54.814Z,0.78
2022-12-08T04:51:54.820Z,0.76
2022-12-08T04:52:54.836Z,0.81
2022-12-08T04:53:54.833Z,0.77
2022-12-08T04:54:54.843Z,0.73
2022-12-08T04:55:54.863Z,0.71
2022-12-08T04:56:54.859Z,0.81
2022-12-08T04:57:54.875Z,0.77
2022-12-08T04:58:54.878Z,0.85
2022-12-08T04:59:54.879Z,0.71
2022-12-08T05:00:54.958Z,0.84
2022-12-08T05:01:55.060Z,0.88
2022-12-08T05:02:54.989Z,0.91
2022-12-08T05:03:54.903Z,0.88
2022-12-08T05:04:54.919Z,0.84
2022-12-08T05:05:54.931Z,0.91
2022-12-08T05:06:54.939Z,0.85
2022-12-08T05:07:54.987Z,0.91
2022-12-08T05:08:54.941Z,0.85
2022-12-08T05:09:54.953Z,0.88
2022-12-08T05:10:54.955Z,0.89
2022-12-08T05:11:54.962Z,0.84
2022-12-08T05:12:54.969Z,0.82
2022-12-08T05:13:54.977Z,0.94
2022-12-08T05:14:54.984Z,0.94
2022-12-08T05:15:55.009Z,0.92
2022-12-08T05:16:54.997Z,0.96
2022-12-08T05:17:55.005Z,0.96
2022-12-08T05:18:55.017Z,0.96
2022-12-08T05:19:55.019Z,0.99
2022-12-08T05:20:55.026Z,0.91
2022-12-08T05:21:55.033Z,0.99
2022-12-08T05:22:55.042Z,0.99
2022-12-08T05:23:55.046Z,1.02
2022-12-08T05:24:55.059Z,1.03
2022-12-08T05:25:55.070Z,1.04
2022-12-08T05:26:55.068Z,1.02
2022-12-08T05:28:06.256Z,1.03
2022-12-08T05:28:55.085Z,1.02
2022-12-08T05:29:55.091Z,1.02
2022-12-08T05:30:55.098Z,1.04
2022-12-08T05:31:55.159Z,1.00
2022-12-08T05:32:55.113Z,1.02
2022-12-08T05:33:57.424Z,1.06
2022-12-08T05:34:55.126Z,1.06
2022-12-08T05:35:55.132Z,1.09
2022-12-08T05:36:55.146Z,1.07
2022-12-08T05:37:55.149Z,1.04
2022-12-08T05:38:55.155Z,1.06
2022-12-08T05:39:55.163Z,1.02
2022-12-08T05:40:55.171Z,1.06
2022-12-08T05:41:55.178Z,1.06
2022-12-08T05:42:55.189Z,1.04
2022-12-08T05:43:55.191Z,1.07
2022-12-08T05:44:55.199Z,1.00
2022-12-08T05:45:55.243Z,1.02
2022-12-08T05:46:55.216Z,1.07
2022-12-08T05:47:55.222Z,1.06
2022-12-08T05:48:55.244Z,0.99
2022-12-08T05:49:55.235Z,1.03
2022-12-08T05:50:55.244Z,1.04
2022-12-08T05:51:55.253Z,0.99
2022-12-08T05:52:55.259Z,1.09
2022-12-08T05:53:55.266Z,1.04
2022-12-08T05:54:55.276Z,1.03
2022-12-08T05:55:55.280Z,1.07
2022-12-08T05:56:55.290Z,1.06
2022-12-08T05:57:55.294Z,1.02
2022-12-08T05:58:55.302Z,1.06
2022-12-08T05:59:55.310Z,1.10
2022-12-08T06:00:55.316Z,1.03
2022-12-08T06:01:55.392Z,1.03
2022-12-08T06:02:55.459Z,1.03
2022-12-08T06:03:55.340Z,1.14
2022-12-08T06:04:55.347Z,1.16
2022-12-08T06:05:55.355Z,1.16
2022-12-08T06:06:55.361Z,1.13
2022-12-08T06:07:55.433Z,1.16
2022-12-08T06:08:55.379Z,1.16
2022-12-08T06:09:55.388Z,1.18
2022-12-08T06:10:55.392Z,1.12
2022-12-08T06:11:55.397Z,1.09
2022-12-08T06:12:55.406Z,0.95
2022-12-08T06:13:55.413Z,1.13
2022-12-08T06:14:55.420Z,1.18
2022-12-08T06:15:55.428Z,1.12
2022-12-08T06:16:55.516Z,1.13
2022-12-08T06:17:55.443Z,1.18
2022-12-08T06:18:55.450Z,1.18
2022-12-08T06:19:55.456Z,1.20
2022-12-08T06:20:55.463Z,1.20
2022-12-08T06:21:55.474Z,1.20
2022-12-08T06:22:55.480Z,1.18
2022-12-08T06:23:55.491Z,1.21
2022-12-08T06:24:55.500Z,1.16
2022-12-08T06:25:55.502Z,1.20
2022-12-08T06:26:55.509Z,1.20
2022-12-08T06:27:55.519Z,1.14
2022-12-08T06:28:55.524Z,1.14
2022-12-08T06:29:55.534Z,1.18
2022-12-08T06:30:55.540Z,1.14
2022-12-08T06:31:55.615Z,1.18
2022-12-08T06:32:55.554Z,1.16
2022-12-08T06:33:55.562Z,1.10
2022-12-08T06:34:55.570Z,1.12
2022-12-08T06:35:55.580Z,1.12
2022-12-08T06:36:55.587Z,1.10
2022-12-08T06:37:55.593Z,1.10
2022-12-08T06:38:55.600Z,1.02
2022-12-08T06:39:55.608Z,1.06
2022-12-08T06:40:55.614Z,1.06
2022-12-08T06:41:55.622Z,1.06
2022-12-08T06:42:55.632Z,1.04
2022-12-08T06:43:55.638Z,1.04
2022-12-08T06:44:55.644Z,1.04
2022-12-08T06:45:55.688Z,1.04
2022-12-08T06:46:55.661Z,1.02
2022-12-08T06:47:55.674Z,1.02
2022-12-08T06:48:55.673Z,1.06
2022-12-08T06:49:55.680Z,1.03
2022-12-08T06:50:55.689Z,0.99
2022-12-08T06:51:55.694Z,1.06
2022-12-08T06:53:04.528Z,1.02
2022-12-08T06:53:55.709Z,1.02
2022-12-08T06:54:55.719Z,1.02
2022-12-08T06:55:59.812Z,0.99
2022-12-08T06:56:55.777Z,1.02
2022-12-08T06:57:57.122Z,1.04
2022-12-08T06:58:55.747Z,1.07
2022-12-08T06:59:55.753Z,1.06
2022-12-08T07:00:55.826Z,1.16
2022-12-08T07:01:55.819Z,1.18
2022-12-08T07:02:55.830Z,1.10
2022-12-08T07:03:55.782Z,1.16
2022-12-08T07:04:55.790Z,1.10
2022-12-08T07:06:00.266Z,1.16
2022-12-08T07:06:55.809Z,1.18
2022-12-08T07:07:55.857Z,1.14
2022-12-08T07:08:55.820Z,1.13
2022-12-08T07:09:55.827Z,1.16
2022-12-08T07:10:55.833Z,1.27
2022-12-08T07:11:55.841Z,1.22
2022-12-08T07:12:55.850Z,1.18
2022-12-08T07:13:55.857Z,1.30
2022-12-08T07:14:55.865Z,1.30
2022-12-08T07:15:55.876Z,1.24
2022-12-08T07:16:55.950Z,1.27
2022-12-08T07:17:59.842Z,1.20
2022-12-08T07:18:55.896Z,1.22
2022-12-08T07:19:55.902Z,1.31
2022-12-08T07:20:55.910Z,1.25
2022-12-08T07:21:55.918Z,1.27
2022-12-08T07:22:55.924Z,1.30
2022-12-08T07:23:57.869Z,1.27
2022-12-08T07:24:55.940Z,1.24
2022-12-08T07:25:55.950Z,1.34
2022-12-08T07:26:55.954Z,1.36
2022-12-08T07:27:55.967Z,1.36
2022-12-08T07:28:55.970Z,1.43
2022-12-08T07:29:55.981Z,1.45
2022-12-08T07:30:56.008Z,1.49
2022-12-08T07:31:55.994Z,1.36
2022-12-08T07:32:56.003Z,1.43
2022-12-08T07:33:56.012Z,1.45
2022-12-08T07:34:56.017Z,1.52
2022-12-08T07:35:56.024Z,1.53
2022-12-08T07:36:56.039Z,1.56
2022-12-08T07:37:56.043Z,1.49
2022-12-08T07:38:56.049Z,1.49
2022-12-08T07:39:56.056Z,1.49
2022-12-08T07:40:56.063Z,1.52
2022-12-08T07:41:56.071Z,1.52
2022-12-08T07:42:56.084Z,1.57
2022-12-08T07:43:56.095Z,1.52
2022-12-08T07:44:56.096Z,1.53
2022-12-08T07:45:56.159Z,1.57
2022-12-08T07:46:56.111Z,1.61
2022-12-08T07:47:56.117Z,1.64
2022-12-08T07:48:56.125Z,1.60
2022-12-08T07:49:56.133Z,1.66
2022-12-08T07:50:56.143Z,1.64
2022-12-08T07:51:56.149Z,1.71
2022-12-08T07:52:56.158Z,1.68
2022-12-08T07:53:56.165Z,1.71
2022-12-08T07:54:56.174Z,1.75
2022-12-08T07:55:56.189Z,1.75
2022-12-08T07:56:56.190Z,1.75
2022-12-08T07:57:56.198Z,1.71
2022-12-08T07:58:56.210Z,1.67
2022-12-08T07:59:56.213Z,1.74
2022-12-08T08:00:56.327Z,1.78
2022-12-08T08:02:13.496Z,1.81
2022-12-08T08:02:56.345Z,1.78
2022-12-08T08:03:56.244Z,1.78
2022-12-08T08:04:56.335Z,1.78
2022-12-08T08:05:56.260Z,1.81
2022-12-08T08:06:56.269Z,1.86
2022-12-08T08:07:56.353Z,1.82
2022-12-08T08:08:56.285Z,1.92
2022-12-08T08:09:56.295Z,1.88
2022-12-08T08:10:56.302Z,1.93
2022-12-08T08:12:29.045Z,1.92
2022-12-08T08:12:56.324Z,1.92
2022-12-08T08:13:56.325Z,1.92
2022-12-08T08:14:56.333Z,1.95
2022-12-08T08:15:56.420Z,1.89
2022-12-08T08:16:56.543Z,1.81
2022-12-08T08:17:56.357Z,1.89
2022-12-08T08:18:56.365Z,1.92
2022-12-08T08:19:56.374Z,1.97
2022-12-08T08:20:58.053Z,2.07
2022-12-08T08:21:56.389Z,2.03
2022-12-08T08:22:56.415Z,2.00
2022-12-08T08:23:56.406Z,1.97
2022-12-08T08:24:56.414Z,2.00
2022-12-08T08:25:56.421Z,2.00
2022-12-08T08:26:56.433Z,1.98
2022-12-08T08:27:56.437Z,2.07
2022-12-08T08:28:56.445Z,1.97
2022-12-08T08:29:56.452Z,2.01
2022-12-08T08:30:56.512Z,2.08
2022-12-08T08:31:56.468Z,2.07
2022-12-08T08:32:56.480Z,2.01
2022-12-08T08:33:56.485Z,2.05
2022-12-08T08:34:56.494Z,2.15
2022-12-08T08:35:56.504Z,2.04
2022-12-08T08:36:56.540Z,2.03
2022-12-08T08:37:56.518Z,2.15
2022-12-08T08:38:56.528Z,2.18
2022-12-08T08:39:56.534Z,2.22
2022-12-08T08:40:56.543Z,2.21
2022-12-08T08:41:56.555Z,2.22
2022-12-08T08:42:56.561Z,2.21
2022-12-08T08:43:56.568Z,2.30
2022-12-08T08:44:56.576Z,2.32
2022-12-08T08:45:56.623Z,2.26
2022-12-08T08:46:56.624Z,2.37
2022-12-08T08:47:56.601Z,2.39
2022-12-08T08:48:56.609Z,2.37
2022-12-08T08:49:56.621Z,2.39
2022-12-08T08:50:56.628Z,2.37
2022-12-08T08:51:56.635Z,2.46
2022-12-08T08:52:56.649Z,2.37
2022-12-08T08:53:56.656Z,2.54
2022-12-08T08:54:56.662Z,2.46
2022-12-08T08:55:56.670Z,2.46
2022-12-08T08:56:56.678Z,2.55
2022-12-08T08:57:56.696Z,2.37
2022-12-08T08:58:56.711Z,2.52
2022-12-08T08:59:56.717Z,2.50
2022-12-08T09:00:56.716Z,2.55
2022-12-08T09:01:56.833Z,2.59
2022-12-08T09:02:56.732Z,2.59
2022-12-08T09:03:56.782Z,2.62
2022-12-08T09:04:56.805Z,2.62
2022-12-08T09:05:56.856Z,2.64
2022-12-08T09:06:56.777Z,2.73
2022-12-08T09:07:56.796Z,2.72
2022-12-08T09:08:56.792Z,2.73
2022-12-08T09:10:01.455Z,2.77
2022-12-08T09:10:56.801Z,2.87
2022-12-08T09:11:56.809Z,2.77
2022-12-08T09:12:56.819Z,2.83
2022-12-08T09:13:56.831Z,2.93
2022-12-08T09:14:56.835Z,2.87
2022-12-08T09:15:56.913Z,2.87
2022-12-08T09:16:56.855Z,2.98
2022-12-08T09:17:56.866Z,2.93
2022-12-08T09:18:56.873Z,3.03
2022-12-08T09:19:56.879Z,2.94
2022-12-08T09:20:56.890Z,2.91
2022-12-08T09:21:56.899Z,2.97
2022-12-08T09:22:56.909Z,3.06
2022-12-08T09:23:56.948Z,2.93
2022-12-08T09:24:56.926Z,2.91
2022-12-08T09:25:56.936Z,2.93
2022-12-08T09:26:56.944Z,3.05
2022-12-08T09:27:56.954Z,3.01
2022-12-08T09:28:56.968Z,2.98
2022-12-08T09:29:56.972Z,3.00
2022-12-08T09:30:57.062Z,3.05
2022-12-08T09:31:57.036Z,3.06
2022-12-08T09:32:57.003Z,3.03
2022-12-08T09:33:57.009Z,3.09
2022-12-08T09:34:57.021Z,3.11
2022-12-08T09:35:57.030Z,3.11
2022-12-08T09:36:57.037Z,3.15
2022-12-08T09:37:57.047Z,3.06
2022-12-08T09:38:57.060Z,3.12
2022-12-08T09:39:57.062Z,3.11
2022-12-08T09:40:57.091Z,3.16
2022-12-08T09:41:57.088Z,3.13
2022-12-08T09:42:57.098Z,3.16
2022-12-08T09:43:57.111Z,3.13
2022-12-08T09:44:57.128Z,3.21
2022-12-08T09:45:57.128Z,3.18
2022-12-08T09:46:57.171Z,3.19
2022-12-08T09:47:57.140Z,3.24
2022-12-08T09:48:57.155Z,3.19
2022-12-08T09:49:57.159Z,3.29
2022-12-08T09:50:57.168Z,3.27
2022-12-08T09:51:57.181Z,3.27
2022-12-08T09:52:57.188Z,3.26
2022-12-08T09:53:57.199Z,3.26
2022-12-08T09:54:57.208Z,3.22
2022-12-08T09:55:57.216Z,3.33
2022-12-08T09:56:57.227Z,3.37
2022-12-08T09:57:57.238Z,3.40
2022-12-08T09:58:57.246Z,3.36
2022-12-08T09:59:57.259Z,3.40
2022-12-08T10:00:57.266Z,3.40
2022-12-08T10:01:57.335Z,3.45
2022-12-08T10:02:57.287Z,3.43
2022-12-08T10:03:57.303Z,3.46
2022-12-08T10:04:57.417Z,3.41
2022-12-08T10:05:57.321Z,3.48
2022-12-08T10:06:57.323Z,3.48
2022-12-08T10:07:57.359Z,3.49
2022-12-08T10:08:57.344Z,3.52
2022-12-08T10:09:57.352Z,3.50
2022-12-08T10:10:57.373Z,3.46
2022-12-08T10:11:57.372Z,3.48
2022-12-08T10:12:57.388Z,3.61
2022-12-08T10:13:57.393Z,3.49
2022-12-08T10:14:57.402Z,3.50
2022-12-08T10:15:57.518Z,3.58
2022-12-08T10:16:57.504Z,3.63
2022-12-08T10:17:57.437Z,3.66
2022-12-08T10:18:57.439Z,3.53
2022-12-08T10:19:57.451Z,3.61
2022-12-08T10:20:57.463Z,3.67
2022-12-08T10:21:57.468Z,3.58
2022-12-08T10:22:57.478Z,3.59
2022-12-08T10:23:57.488Z,3.63
2022-12-08T10:24:57.498Z,3.50
2022-12-08T10:25:57.508Z,3.59
2022-12-08T10:26:57.534Z,3.64
2022-12-08T10:27:57.526Z,3.58
2022-12-08T10:28:57.539Z,3.59
2022-12-08T10:29:57.548Z,3.63
2022-12-08T10:30:57.605Z,3.66
2022-12-08T10:31:57.621Z,3.70
2022-12-08T10:32:57.578Z,3.61
2022-12-08T10:33:57.589Z,3.59
2022-12-08T10:34:57.605Z,3.61
2022-12-08T10:35:57.603Z,3.64
2022-12-08T10:36:57.614Z,3.66
2022-12-08T10:37:57.626Z,3.76
2022-12-08T10:38:57.633Z,3.73
2022-12-08T10:39:57.644Z,3.73
2022-12-08T10:40:57.652Z,3.70
2022-12-08T10:41:57.665Z,3.68
2022-12-08T10:42:57.673Z,3.68
2022-12-08T10:43:57.684Z,3.76
2022-12-08T10:44:57.696Z,3.85
2022-12-08T10:45:57.703Z,3.78
2022-12-08T10:46:57.762Z,3.76
2022-12-08T10:47:57.718Z,3.74
2022-12-08T10:48:57.730Z,3.70
2022-12-08T10:49:57.739Z,3.68
2022-12-08T10:50:57.748Z,3.71
2022-12-08T10:51:57.758Z,3.82
2022-12-08T10:52:57.770Z,3.82
2022-12-08T10:53:57.778Z,3.78
2022-12-08T10:54:57.788Z,3.66
2022-12-08T10:55:57.798Z,3.68
2022-12-08T10:56:57.805Z,3.73
2022-12-08T10:57:57.815Z,3.76
2022-12-08T10:58:57.831Z,3.74
2022-12-08T10:59:57.838Z,3.76
2022-12-08T11:00:57.878Z,3.76
2022-12-08T11:01:57.960Z,3.70
2022-12-08T11:02:57.953Z,3.70
2022-12-08T11:03:57.872Z,3.70
2022-12-08T11:04:57.882Z,3.61
2022-12-08T11:05:57.895Z,3.64
2022-12-08T11:06:57.900Z,3.63
2022-12-08T11:07:58.001Z,3.66
2022-12-08T11:08:57.920Z,3.63
2022-12-08T11:09:57.930Z,3.64
2022-12-08T11:10:57.939Z,3.66
2022-12-08T11:11:57.950Z,3.66
2022-12-08T11:12:57.958Z,3.64
2022-12-08T11:13:57.968Z,3.64
2022-12-08T11:14:57.979Z,3.66
2022-12-08T11:15:58.042Z,3.68
2022-12-08T11:16:58.051Z,3.63
2022-12-08T11:17:58.006Z,3.61
2022-12-08T11:18:58.016Z,3.66
2022-12-08T11:19:58.027Z,3.61
2022-12-08T11:20:58.033Z,3.52
2022-12-08T11:21:58.055Z,3.53
2022-12-08T11:22:58.049Z,3.61
2022-12-08T11:23:58.064Z,3.56
2022-12-08T11:24:58.068Z,3.64
2022-12-08T11:25:58.077Z,3.64
2022-12-08T11:26:58.091Z,3.59
2022-12-08T11:27:58.094Z,3.52
2022-12-08T11:28:58.105Z,3.55
2022-12-08T11:29:58.113Z,3.52
2022-12-08T11:30:58.125Z,3.45
2022-12-08T11:31:58.216Z,3.53
2022-12-08T11:32:58.142Z,3.48
2022-12-08T11:33:58.151Z,3.49
2022-12-08T11:34:58.165Z,3.46
2022-12-08T11:35:58.168Z,3.46
2022-12-08T11:36:58.184Z,3.52
2022-12-08T11:38:13.492Z,3.58
2022-12-08T11:38:58.198Z,3.52
2022-12-08T11:39:58.206Z,3.52
2022-12-08T11:40:58.215Z,3.52
2022-12-08T11:41:58.227Z,3.48
2022-12-08T11:42:58.234Z,3.50
2022-12-08T11:43:58.244Z,3.50
2022-12-08T11:44:58.256Z,3.45
2022-12-08T11:45:58.299Z,3.58
2022-12-08T11:46:58.268Z,3.48
2022-12-08T11:47:58.276Z,3.46
2022-12-08T11:49:01.251Z,3.49
2022-12-08T11:49:58.299Z,3.48
2022-12-08T11:50:58.307Z,3.49
2022-12-08T11:51:58.311Z,3.49
2022-12-08T11:52:58.322Z,3.43
2022-12-08T11:53:58.332Z,3.58
2022-12-08T11:54:58.348Z,3.49
2022-12-08T11:55:58.353Z,3.50
2022-12-08T11:56:58.358Z,3.52
2022-12-08T11:57:58.431Z,3.53
2022-12-08T11:58:58.375Z,3.49
2022-12-08T11:59:58.385Z,3.50
2022-12-08T12:00:58.395Z,3.56
2022-12-08T12:01:58.420Z,3.48
2022-12-08T12:02:58.453Z,3.52
2022-12-08T12:03:58.423Z,3.52
2022-12-08T12:04:58.430Z,3.49
2022-12-08T12:06:37.583Z,3.63
2022-12-08T12:06:58.448Z,3.58
2022-12-08T12:07:58.478Z,3.61
2022-12-08T12:08:58.466Z,3.49
2022-12-08T12:09:58.479Z,3.52
2022-12-08T12:10:58.484Z,3.52
2022-12-08T12:11:58.496Z,3.55
2022-12-08T12:12:58.503Z,3.61
2022-12-08T12:13:58.514Z,3.53
2022-12-08T12:14:58.524Z,3.61
2022-12-08T12:15:58.546Z,3.53
2022-12-08T12:16:58.618Z,3.64
2022-12-08T12:17:58.549Z,3.63
2022-12-08T12:18:58.559Z,3.52
2022-12-08T12:19:58.573Z,3.50
2022-12-08T12:20:58.603Z,3.52
2022-12-08T12:21:58.585Z,3.53
2022-12-08T12:22:58.594Z,3.59
2022-12-08T12:23:58.601Z,3.53
2022-12-08T12:24:58.613Z,3.53
2022-12-08T12:25:58.626Z,3.53
2022-12-08T12:26:58.639Z,3.59
2022-12-08T12:27:58.646Z,3.52
2022-12-08T12:28:58.671Z,3.63
2022-12-08T12:29:58.656Z,3.48
2022-12-08T12:30:58.740Z,3.50
2022-12-08T12:31:58.675Z,3.49
2022-12-08T12:32:58.685Z,3.55
2022-12-08T12:33:58.694Z,3.49
2022-12-08T12:34:58.705Z,3.45
2022-12-08T12:35:58.713Z,3.48
2022-12-08T12:36:58.721Z,3.49
2022-12-08T12:37:58.730Z,3.49
2022-12-08T12:38:58.742Z,3.58
2022-12-08T12:39:58.746Z,3.48
2022-12-08T12:40:58.758Z,3.48
2022-12-08T12:41:58.766Z,3.50
2022-12-08T12:42:58.777Z,3.58
2022-12-08T12:43:58.783Z,3.52
2022-12-08T12:44:58.793Z,3.53
2022-12-08T12:45:58.831Z,3.59
2022-12-08T12:46:58.814Z,3.66
2022-12-08T12:47:58.823Z,3.61
2022-12-08T12:48:58.831Z,3.61
2022-12-08T12:49:58.837Z,3.61
2022-12-08T12:50:58.849Z,3.66
2022-12-08T12:51:58.859Z,3.67
2022-12-08T12:52:58.868Z,3.70
2022-12-08T12:53:58.877Z,3.74
2022-12-08T12:54:58.887Z,3.66
2022-12-08T12:55:58.896Z,3.63
2022-12-08T12:56:58.913Z,3.59
2022-12-08T12:57:58.916Z,3.74
2022-12-08T12:58:58.923Z,3.64
2022-12-08T12:59:58.950Z,3.63
2022-12-08T13:00:58.967Z,3.67
2022-12-08T13:01:58.958Z,3.59
2022-12-08T13:02:59.122Z,3.63
2022-12-08T13:03:58.969Z,3.63
2022-12-08T13:04:58.982Z,3.70
2022-12-08T13:05:58.988Z,3.61
2022-12-08T13:06:58.998Z,3.61
2022-12-08T13:07:59.090Z,3.66
2022-12-08T13:08:59.018Z,3.52
2022-12-08T13:09:59.026Z,3.61
2022-12-08T13:10:59.035Z,3.50
2022-12-08T13:11:59.043Z,3.49
2022-12-08T13:12:59.052Z,3.66
2022-12-08T13:13:59.064Z,3.53
2022-12-08T13:14:59.072Z,3.53
2022-12-08T13:15:59.081Z,3.66
2022-12-08T13:16:59.125Z,3.61
2022-12-08T13:17:59.103Z,3.50
2022-12-08T13:18:59.123Z,3.61